Main page
METAR-TAF:

METAR-TAF

Airports :

Waddington, England

RAF Waddington

latitude: 53-10N, longitude: 000-31W, elevation: 68 m

Current weather observation

The report was made 35 minutes ago, at 16:50 UTC
Wind 7 kt from the East
Temperature 19°C
Humidity 40%
Pressure 1013 hPa
Visibility 10 km or more
no clouds below 1500 m and no cumulonimbus

METAR: EGXW 261650Z 08007KT CAVOK 19/05 Q1013 BLU NOSIG

Time: 18:25 (17:25 UTC)

Forecast

The report was made 3 hours and 30 minutes ago, at 13:55 UTC
Forecast valid from 26 at 15 UTC to 27 at 09 UTC
Wind 4 kt from variable directions
Visibility 10 km or more
Scattered clouds at a height of 4800 ft
Probability 30% :
Temporary
from 27 at 02 UTC to 27 at 08 UTC
Visibility: 7000 m
rain

TAF: EGXW 261355Z 2615/2709 VRB04KT 9999 SCT048 PROB30 TEMPO 2702/2708 7000 RA

Weather observations and forecasts of more than 4000 airports (METAR and TAF reports).

The available stations are represented by yellow and red dots on the map.

Hover mouse over dot to see the name of the station.

Then click to see weather observations and forecasts.

To change the map : click on the green buttons with a black cross to zoom in, on the green button with a dash to zoom out, or on the green arrows for adjacent maps.


METAR-TAF: